Date,TemperatureHighF,TemperatureAvgF,TemperatureLowF,DewpointHighF,DewpointAvgF,DewpointLowF,HumidityHigh,HumidityAvg,HumidityLow,PressureMaxIn,PressureMinIn,WindSpeedMaxMPH,WindSpeedAvgMPH,GustSpeedMaxMPH,PrecipitationSumIn
2013-3-1,39,36,33,31,29,26,93,75,60,30.02,29.96,11,5,13,0.00
2013-3-2,35,32,30,31,28,25,93,85,71,30.08,29.96,11,7,18,0.01
2013-3-3,43,33,27,25,20,12,80,59,29,30.11,30.03,13,5,22,0.01
2013-3-4,58,45,29,39,26,22,82,52,30,30.10,29.84,14,5,25,0.00
2013-3-5,58,49,33,56,43,20,95,79,55,29.99,29.66,24,10,33,0.76
2013-3-6,42,36,31,28,24,18,78,62,52,30.22,29.99,15,8,25,0.08
2013-3-7,49,37,27,33,28,23,87,71,51,30.29,30.21,10,5,5,0.00
2013-3-8,62,44,29,32,26,18,87,56,20,30.32,30.17,10,4,14,0.00
2013-3-9,66,53,39,36,31,26,72,44,31,30.19,30.02,13,6,21,0.00
2013-3-10,73,62,52,47,38,32,52,41,31,30.05,29.81,18,10,31,0.00
2013-3-11,66,50,40,54,44,30,97,80,50,29.93,29.74,20,7,30,1.12
2013-3-12,56,44,32,34,30,26,86,61,38,30.12,29.92,10,5,20,0.08
2013-3-13,49,42,35,29,24,17,73,50,29,30.32,30.10,16,8,27,0.00
2013-3-14,53,40,26,29,20,15,76,48,23,30.38,30.19,11,2,16,0.00
2013-3-15,75,58,40,44,35,24,54,44,31,30.19,29.91,17,6,28,0.00
2013-3-16,75,65,55,48,44,41,65,48,33,29.92,29.81,18,7,30,0.00
2013-3-17,70,62,56,53,48,44,80,62,41,29.92,29.79,16,5,24,0.00
2013-3-18,64,59,51,60,55,44,96,86,70,29.90,29.69,13,6,35,0.72
2013-3-19,60,50,37,44,33,20,95,58,22,30.10,29.90,12,6,19,0.11
2013-3-20,55,46,38,28,23,16,65,42,25,30.12,29.93,18,6,33,0.00
2013-3-21,46,36,26,29,16,9,70,46,26,30.04,29.89,14,5,20,0.00
2013-3-22,49,44,39,37,29,22,70,56,48,29.98,29.89,10,3,16,0.00
2013-3-23,54,48,44,50,46,37,98,92,69,29.92,29.66,12,4,20,1.05
2013-3-24,60,53,42,52,47,30,98,82,58,29.66,29.42,26,10,40,0.93
2013-3-26,39,38,37,27,26,25,65,61,56,30.29,30.24,7,2,11,0.00
2013-3-27,53,40,27,31,27,23,86,61,36,30.35,30.23,10,3,18,0.00
2013-3-28,63,48,34,35,30,24,83,55,29,30.32,30.21,9,2,17,0.00
2013-3-29,67,52,38,41,35,31,85,56,28,30.24,30.10,14,3,19,0.00
2013-3-30,69,56,47,55,46,-100,98,74,48,30.13,29.92,9,2,13,0.48
2013-3-31,64,57,54,59,55,53,98,95,78,29.92,29.82,12,4,17,0.50